sensor_id;sensor_type;location;lat;lon;timestamp;temperature;humidity
12015;DHT22;6066;48.138;16.402;2023-02-26T00:02:11;3.10;99.90
12015;DHT22;6066;48.138;16.402;2023-02-26T00:04:40;3.10;99.90
12015;DHT22;6066;48.138;16.402;2023-02-26T00:07:06;3.10;99.90
12015;DHT22;6066;48.138;16.402;2023-02-26T00:09:33;3.00;99.90
12015;DHT22;6066;48.138;16.402;2023-02-26T00:12:00;3.10;99.90
12015;DHT22;6066;48.138;16.402;2023-02-26T00:14:27;3.10;99.90
12015;DHT22;6066;48.138;16.402;2023-02-26T00:16:56;3.10;99.90
12015;DHT22;6066;48.138;16.402;2023-02-26T00:19:32;3.10;99.90
12015;DHT22;6066;48.138;16.402;2023-02-26T00:22:00;3.00;99.90
12015;DHT22;6066;48.138;16.402;2023-02-26T00:24:27;3.00;99.90
12015;DHT22;6066;48.138;16.402;2023-02-26T00:26:54;3.10;99.90
12015;DHT22;6066;48.138;16.402;2023-02-26T00:29:21;3.00;99.90
12015;DHT22;6066;48.138;16.402;2023-02-26T00:31:48;3.00;99.90
12015;DHT22;6066;48.138;16.402;2023-02-26T00:34:15;3.00;99.90
12015;DHT22;6066;48.138;16.402;2023-02-26T00:37:01;3.00;99.90
12015;DHT22;6066;48.138;16.402;2023-02-26T00:39:34;3.00;99.90
12015;DHT22;6066;48.138;16.402;2023-02-26T00:42:03;3.00;99.90
12015;DHT22;6066;48.138;16.402;2023-02-26T00:44:30;3.00;99.90
12015;DHT22;6066;48.138;16.402;2023-02-26T00:46:58;3.00;99.90
12015;DHT22;6066;48.138;16.402;2023-02-26T00:49:27;3.00;99.90
12015;DHT22;6066;48.138;16.402;2023-02-26T00:51:57;2.90;99.90
12015;DHT22;6066;48.138;16.402;2023-02-26T00:54:26;2.90;99.90
12015;DHT22;6066;48.138;16.402;2023-02-26T00:56:53;2.90;99.90
12015;DHT22;6066;48.138;16.402;2023-02-26T00:59:20;2.90;99.90
12015;DHT22;6066;48.138;16.402;2023-02-26T01:01:47;2.90;99.90
12015;DHT22;6066;48.138;16.402;2023-02-26T01:04:15;2.90;99.90
12015;DHT22;6066;48.138;16.402;2023-02-26T01:06:42;2.90;99.90
12015;DHT22;6066;48.138;16.402;2023-02-26T01:09:12;2.80;99.90
12015;DHT22;6066;48.138;16.402;2023-02-26T01:11:42;2.80;99.90
12015;DHT22;6066;48.138;16.402;2023-02-26T01:14:09;2.80;99.90
12015;DHT22;6066;48.138;16.402;2023-02-26T01:16:37;2.80;99.90
12015;DHT22;6066;48.138;16.402;2023-02-26T01:19:08;2.80;99.90
12015;DHT22;6066;48.138;16.402;2023-02-26T01:21:40;2.70;99.90
12015;DHT22;6066;48.138;16.402;2023-02-26T01:24:10;2.70;99.90
12015;DHT22;6066;48.138;16.402;2023-02-26T01:26:39;2.70;99.90
12015;DHT22;6066;48.138;16.402;2023-02-26T01:29:07;2.70;99.90
12015;DHT22;6066;48.138;16.402;2023-02-26T01:31:37;2.70;99.90
12015;DHT22;6066;48.138;16.402;2023-02-26T01:34:06;2.70;99.90
12015;DHT22;6066;48.138;16.402;2023-02-26T01:36:35;2.60;99.90
12015;DHT22;6066;48.138;16.402;2023-02-26T01:39:07;2.60;99.90
12015;DHT22;6066;48.138;16.402;2023-02-26T01:41:38;2.60;99.90
12015;DHT22;6066;48.138;16.402;2023-02-26T01:44:14;2.60;99.90
12015;DHT22;6066;48.138;16.402;2023-02-26T01:46:50;2.60;99.90
12015;DHT22;6066;48.138;16.402;2023-02-26T01:49:19;2.50;99.90
12015;DHT22;6066;48.138;16.402;2023-02-26T01:51:47;2.50;99.90
12015;DHT22;6066;48.138;16.402;2023-02-26T01:54:14;2.50;99.90
12015;DHT22;6066;48.138;16.402;2023-02-26T01:56:42;2.50;99.90
12015;DHT22;6066;48.138;16.402;2023-02-26T01:59:10;2.50;99.90
12015;DHT22;6066;48.138;16.402;2023-02-26T02:01:38;2.40;99.90
12015;DHT22;6066;48.138;16.402;2023-02-26T02:04:06;2.40;99.90
12015;DHT22;6066;48.138;16.402;2023-02-26T02:06:33;2.40;99.90
12015;DHT22;6066;48.138;16.402;2023-02-26T02:09:00;2.30;99.90
12015;DHT22;6066;48.138;16.402;2023-02-26T02:11:27;2.30;99.90
12015;DHT22;6066;48.138;16.402;2023-02-26T02:13:56;2.30;99.90
12015;DHT22;6066;48.138;16.402;2023-02-26T02:16:29;2.30;99.90
12015;DHT22;6066;48.138;16.402;2023-02-26T02:18:59;2.30;99.90
12015;DHT22;6066;48.138;16.402;2023-02-26T02:21:39;2.30;99.90
12015;DHT22;6066;48.138;16.402;2023-02-26T02:24:11;2.30;99.90
12015;DHT22;6066;48.138;16.402;2023-02-26T02:26:56;2.30;99.90
12015;DHT22;6066;48.138;16.402;2023-02-26T02:32:08;2.30;99.90
12015;DHT22;6066;48.138;16.402;2023-02-26T02:34:36;2.30;99.90
12015;DHT22;6066;48.138;16.402;2023-02-26T02:37:04;2.30;99.90
12015;DHT22;6066;48.138;16.402;2023-02-26T02:39:33;2.30;99.90
12015;DHT22;6066;48.138;16.402;2023-02-26T02:42:02;2.20;99.90
12015;DHT22;6066;48.138;16.402;2023-02-26T02:44:30;2.20;99.90
12015;DHT22;6066;48.138;16.402;2023-02-26T02:46:57;2.10;99.90
12015;DHT22;6066;48.138;16.402;2023-02-26T02:49:28;2.10;99.90
12015;DHT22;6066;48.138;16.402;2023-02-26T02:51:55;2.10;99.90
12015;DHT22;6066;48.138;16.402;2023-02-26T02:54:25;2.10;99.90
12015;DHT22;6066;48.138;16.402;2023-02-26T02:56:53;2.10;99.90
12015;DHT22;6066;48.138;16.402;2023-02-26T02:59:24;2.10;99.90
12015;DHT22;6066;48.138;16.402;2023-02-26T03:01:55;2.20;99.90
12015;DHT22;6066;48.138;16.402;2023-02-26T03:04:26;2.20;99.90
12015;DHT22;6066;48.138;16.402;2023-02-26T03:06:53;2.10;99.90
12015;DHT22;6066;48.138;16.402;2023-02-26T03:09:19;2.10;99.90
12015;DHT22;6066;48.138;16.402;2023-02-26T03:11:46;2.10;99.90
12015;DHT22;6066;48.138;16.402;2023-02-26T03:14:13;2.10;99.90
12015;DHT22;6066;48.138;16.402;2023-02-26T03:16:48;2.10;99.90
12015;DHT22;6066;48.138;16.402;2023-02-26T03:19:21;2.10;99.90
12015;DHT22;6066;48.138;16.402;2023-02-26T03:21:53;2.10;99.90
12015;DHT22;6066;48.138;16.402;2023-02-26T03:24:23;2.10;99.90
12015;DHT22;6066;48.138;16.402;2023-02-26T03:26:53;2.10;99.90
12015;DHT22;6066;48.138;16.402;2023-02-26T03:29:23;2.10;99.90
12015;DHT22;6066;48.138;16.402;2023-02-26T03:31:53;2.00;99.90
12015;DHT22;6066;48.138;16.402;2023-02-26T03:34:21;2.00;99.90
12015;DHT22;6066;48.138;16.402;2023-02-26T03:36:50;2.00;99.90
12015;DHT22;6066;48.138;16.402;2023-02-26T03:39:21;2.00;99.90
12015;DHT22;6066;48.138;16.402;2023-02-26T03:41:51;2.00;99.90
12015;DHT22;6066;48.138;16.402;2023-02-26T03:44:20;2.00;99.90
12015;DHT22;6066;48.138;16.402;2023-02-26T03:46:49;2.00;99.90
12015;DHT22;6066;48.138;16.402;2023-02-26T03:49:20;2.00;99.90
12015;DHT22;6066;48.138;16.402;2023-02-26T03:51:46;2.00;99.90
12015;DHT22;6066;48.138;16.402;2023-02-26T03:54:14;2.00;99.90
12015;DHT22;6066;48.138;16.402;2023-02-26T03:56:45;2.00;99.90
12015;DHT22;6066;48.138;16.402;2023-02-26T03:59:12;2.00;99.90
12015;DHT22;6066;48.138;16.402;2023-02-26T04:01:41;2.00;99.90
12015;DHT22;6066;48.138;16.402;2023-02-26T04:04:11;2.00;99.90
12015;DHT22;6066;48.138;16.402;2023-02-26T04:06:38;2.00;99.90
12015;DHT22;6066;48.138;16.402;2023-02-26T04:09:05;2.00;99.90
12015;DHT22;6066;48.138;16.402;2023-02-26T04:11:32;2.00;99.90
12015;DHT22;6066;48.138;16.402;2023-02-26T04:14:00;2.00;99.90
12015;DHT22;6066;48.138;16.402;2023-02-26T04:16:27;2.00;99.90
12015;DHT22;6066;48.138;16.402;2023-02-26T04:18:54;2.00;99.90
12015;DHT22;6066;48.138;16.402;2023-02-26T04:21:21;2.00;99.90
12015;DHT22;6066;48.138;16.402;2023-02-26T04:23:48;2.00;99.90
12015;DHT22;6066;48.138;16.402;2023-02-26T04:26:14;2.00;99.90
12015;DHT22;6066;48.138;16.402;2023-02-26T04:28:41;2.00;99.90
12015;DHT22;6066;48.138;16.402;2023-02-26T04:31:09;2.00;99.90
12015;DHT22;6066;48.138;16.402;2023-02-26T04:33:36;2.00;99.90
12015;DHT22;6066;48.138;16.402;2023-02-26T04:36:03;2.00;99.90
12015;DHT22;6066;48.138;16.402;2023-02-26T04:38:30;2.00;99.90
12015;DHT22;6066;48.138;16.402;2023-02-26T04:40:57;2.00;99.90
12015;DHT22;6066;48.138;16.402;2023-02-26T04:43:23;2.10;99.90
12015;DHT22;6066;48.138;16.402;2023-02-26T04:45:50;2.10;99.90
12015;DHT22;6066;48.138;16.402;2023-02-26T04:48:18;2.10;99.90
12015;DHT22;6066;48.138;16.402;2023-02-26T04:50:45;2.10;99.90
12015;DHT22;6066;48.138;16.402;2023-02-26T04:53:11;2.00;99.90
12015;DHT22;6066;48.138;16.402;2023-02-26T04:55:38;2.10;99.90
12015;DHT22;6066;48.138;16.402;2023-02-26T04:58:05;2.00;99.90
12015;DHT22;6066;48.138;16.402;2023-02-26T05:00:32;2.00;99.90
12015;DHT22;6066;48.138;16.402;2023-02-26T05:02:59;2.00;99.90
12015;DHT22;6066;48.138;16.402;2023-02-26T05:05:27;2.00;99.90
12015;DHT22;6066;48.138;16.402;2023-02-26T05:07:54;1.90;99.90
12015;DHT22;6066;48.138;16.402;2023-02-26T05:10:21;1.90;99.90
12015;DHT22;6066;48.138;16.402;2023-02-26T05:12:48;1.90;99.90
12015;DHT22;6066;48.138;16.402;2023-02-26T05:15:14;1.90;99.90
12015;DHT22;6066;48.138;16.402;2023-02-26T05:17:41;1.90;99.90
12015;DHT22;6066;48.138;16.402;2023-02-26T05:20:08;1.90;99.90
12015;DHT22;6066;48.138;16.402;2023-02-26T05:22:37;1.90;99.90
12015;DHT22;6066;48.138;16.402;2023-02-26T05:25:04;1.90;99.90
12015;DHT22;6066;48.138;16.402;2023-02-26T05:27:31;1.90;99.90
12015;DHT22;6066;48.138;16.402;2023-02-26T05:29:58;1.90;99.90
12015;DHT22;6066;48.138;16.402;2023-02-26T05:32:24;1.90;99.90
12015;DHT22;6066;48.138;16.402;2023-02-26T05:34:51;1.80;99.90
12015;DHT22;6066;48.138;16.402;2023-02-26T05:37:18;1.80;99.90
12015;DHT22;6066;48.138;16.402;2023-02-26T05:39:46;1.80;99.90
12015;DHT22;6066;48.138;16.402;2023-02-26T05:42:12;1.70;99.90
12015;DHT22;6066;48.138;16.402;2023-02-26T05:44:39;1.70;99.90
12015;DHT22;6066;48.138;16.402;2023-02-26T05:47:05;1.70;99.90
12015;DHT22;6066;48.138;16.402;2023-02-26T05:49:32;1.60;99.90
12015;DHT22;6066;48.138;16.402;2023-02-26T05:51:59;1.60;99.90
12015;DHT22;6066;48.138;16.402;2023-02-26T05:54:25;1.60;99.90
12015;DHT22;6066;48.138;16.402;2023-02-26T05:56:53;1.50;99.90
12015;DHT22;6066;48.138;16.402;2023-02-26T05:59:20;1.40;99.90
12015;DHT22;6066;48.138;16.402;2023-02-26T06:01:47;1.40;99.90
12015;DHT22;6066;48.138;16.402;2023-02-26T06:04:13;1.40;99.90
12015;DHT22;6066;48.138;16.402;2023-02-26T06:06:40;1.40;99.90
12015;DHT22;6066;48.138;16.402;2023-02-26T06:09:07;1.40;99.90
12015;DHT22;6066;48.138;16.402;2023-02-26T06:11:33;1.30;99.90
12015;DHT22;6066;48.138;16.402;2023-02-26T06:14:01;1.30;99.90
12015;DHT22;6066;48.138;16.402;2023-02-26T06:16:28;1.30;99.90
12015;DHT22;6066;48.138;16.402;2023-02-26T06:18:55;1.30;99.90
12015;DHT22;6066;48.138;16.402;2023-02-26T06:21:21;1.30;99.90
12015;DHT22;6066;48.138;16.402;2023-02-26T06:23:48;1.30;99.90
12015;DHT22;6066;48.138;16.402;2023-02-26T06:26:15;1.30;99.90
12015;DHT22;6066;48.138;16.402;2023-02-26T06:28:41;1.30;99.90
12015;DHT22;6066;48.138;16.402;2023-02-26T06:31:09;1.20;99.90
12015;DHT22;6066;48.138;16.402;2023-02-26T06:33:36;1.20;99.90
12015;DHT22;6066;48.138;16.402;2023-02-26T06:36:03;1.30;99.90
12015;DHT22;6066;48.138;16.402;2023-02-26T06:38:30;1.30;99.90
12015;DHT22;6066;48.138;16.402;2023-02-26T06:40:56;1.40;99.90
12015;DHT22;6066;48.138;16.402;2023-02-26T06:43:23;1.40;99.90
12015;DHT22;6066;48.138;16.402;2023-02-26T06:45:50;1.40;99.90
12015;DHT22;6066;48.138;16.402;2023-02-26T06:48:18;1.40;99.90
12015;DHT22;6066;48.138;16.402;2023-02-26T06:50:44;1.50;99.90
12015;DHT22;6066;48.138;16.402;2023-02-26T06:53:11;1.50;99.90
12015;DHT22;6066;48.138;16.402;2023-02-26T06:55:41;1.50;99.90
12015;DHT22;6066;48.138;16.402;2023-02-26T06:58:07;1.60;99.90
12015;DHT22;6066;48.138;16.402;2023-02-26T07:00:34;1.60;99.90
12015;DHT22;6066;48.138;16.402;2023-02-26T07:03:02;1.70;99.90
12015;DHT22;6066;48.138;16.402;2023-02-26T07:05:30;1.80;99.90
12015;DHT22;6066;48.138;16.402;2023-02-26T07:07:57;1.80;99.90
12015;DHT22;6066;48.138;16.402;2023-02-26T07:10:23;1.90;99.90
12015;DHT22;6066;48.138;16.402;2023-02-26T07:12:50;1.90;99.90
12015;DHT22;6066;48.138;16.402;2023-02-26T07:15:17;1.90;99.90
12015;DHT22;6066;48.138;16.402;2023-02-26T07:17:43;1.90;99.90
12015;DHT22;6066;48.138;16.402;2023-02-26T07:20:10;1.90;99.90
12015;DHT22;6066;48.138;16.402;2023-02-26T07:22:39;2.00;99.90
12015;DHT22;6066;48.138;16.402;2023-02-26T07:25:06;2.00;99.90
12015;DHT22;6066;48.138;16.402;2023-02-26T07:27:33;2.10;99.90
12015;DHT22;6066;48.138;16.402;2023-02-26T07:30:00;2.20;99.90
12015;DHT22;6066;48.138;16.402;2023-02-26T07:32:26;2.20;99.90
12015;DHT22;6066;48.138;16.402;2023-02-26T07:34:53;2.20;99.90
12015;DHT22;6066;48.138;16.402;2023-02-26T07:37:20;2.10;99.90
12015;DHT22;6066;48.138;16.402;2023-02-26T07:39:48;2.10;99.90
12015;DHT22;6066;48.138;16.402;2023-02-26T07:42:15;2.00;99.90
12015;DHT22;6066;48.138;16.402;2023-02-26T07:44:42;2.10;99.90
12015;DHT22;6066;48.138;16.402;2023-02-26T07:47:09;2.10;99.90
12015;DHT22;6066;48.138;16.402;2023-02-26T07:49:35;2.10;99.90
12015;DHT22;6066;48.138;16.402;2023-02-26T07:52:02;2.20;99.90
12015;DHT22;6066;48.138;16.402;2023-02-26T07:54:29;2.30;99.90
12015;DHT22;6066;48.138;16.402;2023-02-26T07:56:57;2.30;99.90
12015;DHT22;6066;48.138;16.402;2023-02-26T07:59:24;2.30;99.90
12015;DHT22;6066;48.138;16.402;2023-02-26T08:01:56;2.40;99.90
12015;DHT22;6066;48.138;16.402;2023-02-26T08:04:23;2.50;99.90
12015;DHT22;6066;48.138;16.402;2023-02-26T08:06:50;2.60;99.90
12015;DHT22;6066;48.138;16.402;2023-02-26T08:09:19;2.60;99.90
12015;DHT22;6066;48.138;16.402;2023-02-26T08:11:45;2.70;99.90
12015;DHT22;6066;48.138;16.402;2023-02-26T08:14:13;2.70;99.90
12015;DHT22;6066;48.138;16.402;2023-02-26T08:16:40;2.70;99.90
12015;DHT22;6066;48.138;16.402;2023-02-26T08:19:07;2.70;99.90
12015;DHT22;6066;48.138;16.402;2023-02-26T08:21:33;2.70;99.90
12015;DHT22;6066;48.138;16.402;2023-02-26T08:24:00;2.60;99.90
12015;DHT22;6066;48.138;16.402;2023-02-26T08:26:26;2.60;99.90
12015;DHT22;6066;48.138;16.402;2023-02-26T08:28:53;2.60;99.90
12015;DHT22;6066;48.138;16.402;2023-02-26T08:31:21;2.70;99.90
12015;DHT22;6066;48.138;16.402;2023-02-26T08:33:48;2.70;99.90
12015;DHT22;6066;48.138;16.402;2023-02-26T08:36:14;2.80;99.90
12015;DHT22;6066;48.138;16.402;2023-02-26T08:38:41;2.80;99.90
12015;DHT22;6066;48.138;16.402;2023-02-26T08:41:08;2.90;99.90
12015;DHT22;6066;48.138;16.402;2023-02-26T08:43:35;3.00;99.90
12015;DHT22;6066;48.138;16.402;2023-02-26T08:46:02;3.10;99.90
12015;DHT22;6066;48.138;16.402;2023-02-26T08:48:30;3.20;99.90
12015;DHT22;6066;48.138;16.402;2023-02-26T08:50:56;3.30;99.90
12015;DHT22;6066;48.138;16.402;2023-02-26T08:53:23;3.40;99.90
12015;DHT22;6066;48.138;16.402;2023-02-26T08:55:50;3.70;99.90
12015;DHT22;6066;48.138;16.402;2023-02-26T08:58:17;3.90;99.90
12015;DHT22;6066;48.138;16.402;2023-02-26T09:00:44;4.00;99.90
12015;DHT22;6066;48.138;16.402;2023-02-26T09:03:11;3.90;99.90
12015;DHT22;6066;48.138;16.402;2023-02-26T09:05:39;3.90;99.90
12015;DHT22;6066;48.138;16.402;2023-02-26T09:08:06;3.90;99.90
12015;DHT22;6066;48.138;16.402;2023-02-26T09:10:33;3.90;99.90
12015;DHT22;6066;48.138;16.402;2023-02-26T09:12:59;3.80;99.90
12015;DHT22;6066;48.138;16.402;2023-02-26T09:15:26;3.70;99.90
12015;DHT22;6066;48.138;16.402;2023-02-26T09:17:52;3.70;99.90
12015;DHT22;6066;48.138;16.402;2023-02-26T09:20:19;3.70;99.90
12015;DHT22;6066;48.138;16.402;2023-02-26T09:22:47;3.70;99.90
12015;DHT22;6066;48.138;16.402;2023-02-26T09:25:14;3.70;99.90
12015;DHT22;6066;48.138;16.402;2023-02-26T09:27:41;3.70;99.90
12015;DHT22;6066;48.138;16.402;2023-02-26T09:30:08;3.70;99.90
12015;DHT22;6066;48.138;16.402;2023-02-26T09:32:35;3.80;99.90
12015;DHT22;6066;48.138;16.402;2023-02-26T09:35:02;3.90;99.90
12015;DHT22;6066;48.138;16.402;2023-02-26T09:37:29;3.90;99.90
12015;DHT22;6066;48.138;16.402;2023-02-26T09:39:57;4.00;99.90
12015;DHT22;6066;48.138;16.402;2023-02-26T09:42:28;4.10;99.90
12015;DHT22;6066;48.138;16.402;2023-02-26T09:44:57;4.20;99.90
12015;DHT22;6066;48.138;16.402;2023-02-26T09:47:25;4.20;99.90
12015;DHT22;6066;48.138;16.402;2023-02-26T09:49:53;4.20;99.90
12015;DHT22;6066;48.138;16.402;2023-02-26T09:52:22;4.30;99.90
12015;DHT22;6066;48.138;16.402;2023-02-26T09:54:50;4.40;99.90
12015;DHT22;6066;48.138;16.402;2023-02-26T09:57:23;4.50;99.90
12015;DHT22;6066;48.138;16.402;2023-02-26T09:59:51;4.60;99.90
12015;DHT22;6066;48.138;16.402;2023-02-26T10:02:19;4.80;99.90
12015;DHT22;6066;48.138;16.402;2023-02-26T10:04:49;5.00;99.90
12015;DHT22;6066;48.138;16.402;2023-02-26T10:07:19;5.30;99.90
12015;DHT22;6066;48.138;16.402;2023-02-26T10:09:53;5.40;99.90
12015;DHT22;6066;48.138;16.402;2023-02-26T10:12:24;5.30;99.90
12015;DHT22;6066;48.138;16.402;2023-02-26T10:14:52;5.30;99.90
12015;DHT22;6066;48.138;16.402;2023-02-26T10:17:22;5.20;99.90
12015;DHT22;6066;48.138;16.402;2023-02-26T10:19:50;5.30;99.90
12015;DHT22;6066;48.138;16.402;2023-02-26T10:22:20;5.30;99.90
12015;DHT22;6066;48.138;16.402;2023-02-26T10:24:50;5.40;99.90
12015;DHT22;6066;48.138;16.402;2023-02-26T10:27:19;5.40;99.90
12015;DHT22;6066;48.138;16.402;2023-02-26T10:29:49;5.70;99.90
12015;DHT22;6066;48.138;16.402;2023-02-26T10:32:19;5.70;99.90
12015;DHT22;6066;48.138;16.402;2023-02-26T10:34:50;5.60;99.90
12015;DHT22;6066;48.138;16.402;2023-02-26T10:37:18;5.50;99.90
12015;DHT22;6066;48.138;16.402;2023-02-26T10:39:46;5.40;99.90
12015;DHT22;6066;48.138;16.402;2023-02-26T10:42:17;5.30;99.90
12015;DHT22;6066;48.138;16.402;2023-02-26T10:44:48;5.30;99.90
12015;DHT22;6066;48.138;16.402;2023-02-26T10:47:18;5.10;99.90
12015;DHT22;6066;48.138;16.402;2023-02-26T10:49:51;5.30;99.90
12015;DHT22;6066;48.138;16.402;2023-02-26T10:52:20;5.70;99.90
12015;DHT22;6066;48.138;16.402;2023-02-26T10:54:53;5.90;99.90
12015;DHT22;6066;48.138;16.402;2023-02-26T10:57:24;6.00;99.90
12015;DHT22;6066;48.138;16.402;2023-02-26T10:59:53;6.00;99.90
12015;DHT22;6066;48.138;16.402;2023-02-26T11:02:30;5.90;99.90
12015;DHT22;6066;48.138;16.402;2023-02-26T11:04:58;5.80;99.90
12015;DHT22;6066;48.138;16.402;2023-02-26T11:07:25;6.00;99.90
12015;DHT22;6066;48.138;16.402;2023-02-26T11:09:53;5.90;99.90
12015;DHT22;6066;48.138;16.402;2023-02-26T11:12:20;5.90;99.90
12015;DHT22;6066;48.138;16.402;2023-02-26T11:14:48;5.80;99.90
12015;DHT22;6066;48.138;16.402;2023-02-26T11:17:17;5.70;99.90
12015;DHT22;6066;48.138;16.402;2023-02-26T11:19:49;5.50;99.90
12015;DHT22;6066;48.138;16.402;2023-02-26T11:22:17;5.20;99.90
12015;DHT22;6066;48.138;16.402;2023-02-26T11:24:45;5.00;99.90
12015;DHT22;6066;48.138;16.402;2023-02-26T11:27:13;4.90;99.90
12015;DHT22;6066;48.138;16.402;2023-02-26T11:29:40;4.90;99.90
12015;DHT22;6066;48.138;16.402;2023-02-26T11:32:12;4.90;99.90
12015;DHT22;6066;48.138;16.402;2023-02-26T11:34:45;5.00;99.90
12015;DHT22;6066;48.138;16.402;2023-02-26T11:37:12;5.10;99.90
12015;DHT22;6066;48.138;16.402;2023-02-26T11:39:43;5.10;99.90
12015;DHT22;6066;48.138;16.402;2023-02-26T11:42:10;5.00;99.90
12015;DHT22;6066;48.138;16.402;2023-02-26T11:44:37;4.70;99.90
12015;DHT22;6066;48.138;16.402;2023-02-26T11:47:05;4.10;99.90
12015;DHT22;6066;48.138;16.402;2023-02-26T11:49:32;4.00;99.90
12015;DHT22;6066;48.138;16.402;2023-02-26T11:52:15;3.90;99.90
12015;DHT22;6066;48.138;16.402;2023-02-26T11:54:43;3.80;99.90
12015;DHT22;6066;48.138;16.402;2023-02-26T11:57:13;4.00;99.90
12015;DHT22;6066;48.138;16.402;2023-02-26T11:59:41;4.20;99.90
12015;DHT22;6066;48.138;16.402;2023-02-26T12:02:11;4.50;99.90
12015;DHT22;6066;48.138;16.402;2023-02-26T12:04:38;4.80;99.90
12015;DHT22;6066;48.138;16.402;2023-02-26T12:07:07;4.90;99.90
12015;DHT22;6066;48.138;16.402;2023-02-26T12:09:38;5.10;99.90
12015;DHT22;6066;48.138;16.402;2023-02-26T12:12:08;5.30;99.90
12015;DHT22;6066;48.138;16.402;2023-02-26T12:14:52;5.40;99.90
12015;DHT22;6066;48.138;16.402;2023-02-26T12:17:30;5.30;99.90
12015;DHT22;6066;48.138;16.402;2023-02-26T12:20:02;5.30;99.90
12015;DHT22;6066;48.138;16.402;2023-02-26T12:22:46;5.40;99.90
12015;DHT22;6066;48.138;16.402;2023-02-26T12:30:54;5.40;99.90
12015;DHT22;6066;48.138;16.402;2023-02-26T12:33:26;5.20;99.90
12015;DHT22;6066;48.138;16.402;2023-02-26T12:35:56;5.20;99.90
12015;DHT22;6066;48.138;16.402;2023-02-26T12:38:28;5.20;99.90
12015;DHT22;6066;48.138;16.402;2023-02-26T12:41:08;5.30;99.90
12015;DHT22;6066;48.138;16.402;2023-02-26T12:43:39;5.40;99.90
12015;DHT22;6066;48.138;16.402;2023-02-26T12:46:10;5.50;99.90
12015;DHT22;6066;48.138;16.402;2023-02-26T12:48:55;5.50;99.90
12015;DHT22;6066;48.138;16.402;2023-02-26T12:51:28;5.50;99.90
12015;DHT22;6066;48.138;16.402;2023-02-26T12:54:00;5.50;99.90
12015;DHT22;6066;48.138;16.402;2023-02-26T12:56:39;5.40;99.90
12015;DHT22;6066;48.138;16.402;2023-02-26T12:59:15;5.30;99.90
12015;DHT22;6066;48.138;16.402;2023-02-26T13:01:58;5.20;99.90
12015;DHT22;6066;48.138;16.402;2023-02-26T13:09:55;5.00;99.90
12015;DHT22;6066;48.138;16.402;2023-02-26T13:12:27;5.00;99.90
12015;DHT22;6066;48.138;16.402;2023-02-26T13:14:57;4.90;99.90
12015;DHT22;6066;48.138;16.402;2023-02-26T13:17:30;4.80;99.90
12015;DHT22;6066;48.138;16.402;2023-02-26T13:20:00;4.80;99.90
12015;DHT22;6066;48.138;16.402;2023-02-26T13:22:29;4.70;99.90
12015;DHT22;6066;48.138;16.402;2023-02-26T13:24:57;4.60;99.90
12015;DHT22;6066;48.138;16.402;2023-02-26T13:27:26;4.50;99.90
12015;DHT22;6066;48.138;16.402;2023-02-26T13:29:58;4.30;99.90
12015;DHT22;6066;48.138;16.402;2023-02-26T13:32:27;4.20;99.90
12015;DHT22;6066;48.138;16.402;2023-02-26T13:34:55;4.30;99.90
12015;DHT22;6066;48.138;16.402;2023-02-26T13:37:23;4.20;99.90
12015;DHT22;6066;48.138;16.402;2023-02-26T13:39:54;4.30;99.90
12015;DHT22;6066;48.138;16.402;2023-02-26T13:42:26;4.30;99.90
12015;DHT22;6066;48.138;16.402;2023-02-26T13:44:56;4.40;99.90
12015;DHT22;6066;48.138;16.402;2023-02-26T13:47:35;4.40;99.90
12015;DHT22;6066;48.138;16.402;2023-02-26T13:50:18;4.40;99.90
12015;DHT22;6066;48.138;16.402;2023-02-26T13:52:50;4.40;99.90
12015;DHT22;6066;48.138;16.402;2023-02-26T13:57:58;4.40;99.90
12015;DHT22;6066;48.138;16.402;2023-02-26T14:00:44;4.40;99.90
12015;DHT22;6066;48.138;16.402;2023-02-26T14:03:28;4.30;99.90
12015;DHT22;6066;48.138;16.402;2023-02-26T14:06:05;4.30;99.90
12015;DHT22;6066;48.138;16.402;2023-02-26T14:08:42;4.30;99.90
12015;DHT22;6066;48.138;16.402;2023-02-26T14:11:32;4.20;99.90
12015;DHT22;6066;48.138;16.402;2023-02-26T14:14:06;4.20;99.90
12015;DHT22;6066;48.138;16.402;2023-02-26T14:16:38;4.20;99.90
12015;DHT22;6066;48.138;16.402;2023-02-26T14:19:16;4.20;99.90
12015;DHT22;6066;48.138;16.402;2023-02-26T14:21:48;4.20;99.90
12015;DHT22;6066;48.138;16.402;2023-02-26T14:24:15;4.20;99.90
12015;DHT22;6066;48.138;16.402;2023-02-26T14:26:44;4.20;99.90
12015;DHT22;6066;48.138;16.402;2023-02-26T14:29:13;4.20;99.90
12015;DHT22;6066;48.138;16.402;2023-02-26T14:31:51;4.20;99.90
12015;DHT22;6066;48.138;16.402;2023-02-26T14:34:22;4.10;99.90
12015;DHT22;6066;48.138;16.402;2023-02-26T14:36:50;3.90;99.90
12015;DHT22;6066;48.138;16.402;2023-02-26T14:39:24;3.80;99.90
12015;DHT22;6066;48.138;16.402;2023-02-26T14:41:57;3.60;99.90
12015;DHT22;6066;48.138;16.402;2023-02-26T14:44:25;3.40;99.90
12015;DHT22;6066;48.138;16.402;2023-02-26T14:46:52;3.40;99.90
12015;DHT22;6066;48.138;16.402;2023-02-26T14:49:23;3.30;99.90
12015;DHT22;6066;48.138;16.402;2023-02-26T14:51:53;3.20;99.90
12015;DHT22;6066;48.138;16.402;2023-02-26T14:54:31;3.20;99.90
12015;DHT22;6066;48.138;16.402;2023-02-26T14:57:01;3.20;99.90
12015;DHT22;6066;48.138;16.402;2023-02-26T14:59:35;3.20;99.90
12015;DHT22;6066;48.138;16.402;2023-02-26T15:02:10;3.10;99.90
12015;DHT22;6066;48.138;16.402;2023-02-26T15:04:57;3.10;99.90
12015;DHT22;6066;48.138;16.402;2023-02-26T15:07:33;3.10;99.90
12015;DHT22;6066;48.138;16.402;2023-02-26T15:10:08;3.20;99.90
12015;DHT22;6066;48.138;16.402;2023-02-26T15:12:42;3.20;99.90
12015;DHT22;6066;48.138;16.402;2023-02-26T15:15:14;3.20;99.90
12015;DHT22;6066;48.138;16.402;2023-02-26T15:17:46;3.10;99.90
12015;DHT22;6066;48.138;16.402;2023-02-26T15:20:20;3.10;99.90
12015;DHT22;6066;48.138;16.402;2023-02-26T15:22:54;3.10;99.90
12015;DHT22;6066;48.138;16.402;2023-02-26T15:25:24;3.10;99.90
12015;DHT22;6066;48.138;16.402;2023-02-26T15:27:53;3.10;99.90
12015;DHT22;6066;48.138;16.402;2023-02-26T15:30:21;3.10;99.90
12015;DHT22;6066;48.138;16.402;2023-02-26T15:32:48;3.10;99.90
12015;DHT22;6066;48.138;16.402;2023-02-26T15:35:16;3.10;99.90
12015;DHT22;6066;48.138;16.402;2023-02-26T15:37:48;3.10;99.90
12015;DHT22;6066;48.138;16.402;2023-02-26T15:40:15;3.00;99.90
12015;DHT22;6066;48.138;16.402;2023-02-26T15:42:42;3.00;99.90
12015;DHT22;6066;48.138;16.402;2023-02-26T15:45:11;3.00;99.90
12015;DHT22;6066;48.138;16.402;2023-02-26T15:47:39;3.00;99.90
12015;DHT22;6066;48.138;16.402;2023-02-26T15:50:06;3.00;99.90
12015;DHT22;6066;48.138;16.402;2023-02-26T15:52:33;2.90;99.90
12015;DHT22;6066;48.138;16.402;2023-02-26T15:55:02;2.90;99.90
12015;DHT22;6066;48.138;16.402;2023-02-26T15:57:29;2.90;99.90
12015;DHT22;6066;48.138;16.402;2023-02-26T16:00:00;2.90;99.90
12015;DHT22;6066;48.138;16.402;2023-02-26T16:02:29;2.90;99.90
12015;DHT22;6066;48.138;16.402;2023-02-26T16:04:55;2.80;99.90
12015;DHT22;6066;48.138;16.402;2023-02-26T16:07:22;2.90;99.90
12015;DHT22;6066;48.138;16.402;2023-02-26T16:09:50;2.80;99.90
12015;DHT22;6066;48.138;16.402;2023-02-26T16:12:20;2.80;99.90
12015;DHT22;6066;48.138;16.402;2023-02-26T16:14:48;2.80;99.90